sensor_id;sensor_type;location;lat;lon;timestamp;temperature;humidity
56512;DHT22;42408;53.238;5.686;2022-10-16T00:00:15;13.50;99.90
56512;DHT22;42408;53.238;5.686;2022-10-16T00:02:40;13.40;99.90
56512;DHT22;42408;53.238;5.686;2022-10-16T00:05:06;13.60;99.90
56512;DHT22;42408;53.238;5.686;2022-10-16T00:07:31;13.60;99.90
56512;DHT22;42408;53.238;5.686;2022-10-16T00:09:57;13.60;99.90
56512;DHT22;42408;53.238;5.686;2022-10-16T00:12:22;13.60;99.90
56512;DHT22;42408;53.238;5.686;2022-10-16T00:14:48;13.50;99.90
56512;DHT22;42408;53.238;5.686;2022-10-16T00:17:13;13.50;99.90
56512;DHT22;42408;53.238;5.686;2022-10-16T00:19:39;13.50;99.90
56512;DHT22;42408;53.238;5.686;2022-10-16T00:22:04;13.50;99.90
56512;DHT22;42408;53.238;5.686;2022-10-16T00:24:30;13.50;99.90
56512;DHT22;42408;53.238;5.686;2022-10-16T00:26:55;13.40;99.90
56512;DHT22;42408;53.238;5.686;2022-10-16T00:29:21;13.50;99.90
56512;DHT22;42408;53.238;5.686;2022-10-16T00:31:46;13.50;99.90
56512;DHT22;42408;53.238;5.686;2022-10-16T00:34:12;13.50;99.90
56512;DHT22;42408;53.238;5.686;2022-10-16T00:36:37;13.40;99.90
56512;DHT22;42408;53.238;5.686;2022-10-16T00:39:03;13.40;99.90
56512;DHT22;42408;53.238;5.686;2022-10-16T00:41:29;13.40;99.90
56512;DHT22;42408;53.238;5.686;2022-10-16T00:43:56;13.40;99.90
56512;DHT22;42408;53.238;5.686;2022-10-16T00:51:32;13.30;99.90
56512;DHT22;42408;53.238;5.686;2022-10-16T00:53:58;13.30;99.90
56512;DHT22;42408;53.238;5.686;2022-10-16T00:56:25;13.40;99.90
56512;DHT22;42408;53.238;5.686;2022-10-16T00:58:50;13.40;99.90
56512;DHT22;42408;53.238;5.686;2022-10-16T01:01:16;13.30;99.90
56512;DHT22;42408;53.238;5.686;2022-10-16T01:03:42;13.30;99.90
56512;DHT22;42408;53.238;5.686;2022-10-16T01:11:12;13.30;99.90
56512;DHT22;42408;53.238;5.686;2022-10-16T01:13:42;13.40;99.90
56512;DHT22;42408;53.238;5.686;2022-10-16T01:16:13;13.40;99.90
56512;DHT22;42408;53.238;5.686;2022-10-16T01:18:48;13.40;99.90
56512;DHT22;42408;53.238;5.686;2022-10-16T01:24:03;13.60;99.90
56512;DHT22;42408;53.238;5.686;2022-10-16T01:29:07;13.60;99.90
56512;DHT22;42408;53.238;5.686;2022-10-16T01:31:35;13.60;99.90
56512;DHT22;42408;53.238;5.686;2022-10-16T01:34:10;13.60;99.90
56512;DHT22;42408;53.238;5.686;2022-10-16T01:36:39;13.60;99.90
56512;DHT22;42408;53.238;5.686;2022-10-16T01:39:06;13.60;99.90
56512;DHT22;42408;53.238;5.686;2022-10-16T01:41:36;13.70;99.90
56512;DHT22;42408;53.238;5.686;2022-10-16T01:44:07;13.60;99.90
56512;DHT22;42408;53.238;5.686;2022-10-16T01:46:34;13.70;99.90
56512;DHT22;42408;53.238;5.686;2022-10-16T01:49:01;13.70;99.90
56512;DHT22;42408;53.238;5.686;2022-10-16T01:51:28;13.70;99.90
56512;DHT22;42408;53.238;5.686;2022-10-16T01:53:55;13.80;99.90
56512;DHT22;42408;53.238;5.686;2022-10-16T01:56:22;13.80;99.90
56512;DHT22;42408;53.238;5.686;2022-10-16T01:58:49;13.70;99.90
56512;DHT22;42408;53.238;5.686;2022-10-16T02:01:16;13.70;99.90
56512;DHT22;42408;53.238;5.686;2022-10-16T02:03:43;13.70;99.90
56512;DHT22;42408;53.238;5.686;2022-10-16T02:06:09;13.80;99.90
56512;DHT22;42408;53.238;5.686;2022-10-16T02:08:35;13.70;99.90
56512;DHT22;42408;53.238;5.686;2022-10-16T02:11:01;13.70;99.90
56512;DHT22;42408;53.238;5.686;2022-10-16T02:13:31;13.60;99.90
56512;DHT22;42408;53.238;5.686;2022-10-16T02:15:58;13.60;99.90
56512;DHT22;42408;53.238;5.686;2022-10-16T02:18:24;13.50;99.90
56512;DHT22;42408;53.238;5.686;2022-10-16T02:20:59;13.50;99.90
56512;DHT22;42408;53.238;5.686;2022-10-16T02:23:36;13.40;99.90
56512;DHT22;42408;53.238;5.686;2022-10-16T02:26:07;13.40;99.90
56512;DHT22;42408;53.238;5.686;2022-10-16T02:28:42;13.30;99.90
56512;DHT22;42408;53.238;5.686;2022-10-16T02:31:11;13.30;99.90
56512;DHT22;42408;53.238;5.686;2022-10-16T02:33:37;13.30;99.90
56512;DHT22;42408;53.238;5.686;2022-10-16T02:36:04;13.20;99.90
56512;DHT22;42408;53.238;5.686;2022-10-16T02:38:29;13.20;99.90
56512;DHT22;42408;53.238;5.686;2022-10-16T02:40:55;13.20;99.90
56512;DHT22;42408;53.238;5.686;2022-10-16T02:43:21;13.30;99.90
56512;DHT22;42408;53.238;5.686;2022-10-16T02:45:46;13.20;99.90
56512;DHT22;42408;53.238;5.686;2022-10-16T02:48:12;13.20;99.90
56512;DHT22;42408;53.238;5.686;2022-10-16T02:50:37;13.30;99.90
56512;DHT22;42408;53.238;5.686;2022-10-16T02:53:03;13.20;99.90
56512;DHT22;42408;53.238;5.686;2022-10-16T02:55:28;13.20;99.90
56512;DHT22;42408;53.238;5.686;2022-10-16T02:57:54;13.20;99.90
56512;DHT22;42408;53.238;5.686;2022-10-16T03:00:20;13.20;99.90
56512;DHT22;42408;53.238;5.686;2022-10-16T03:02:46;13.10;99.90
56512;DHT22;42408;53.238;5.686;2022-10-16T03:05:12;12.90;99.90
56512;DHT22;42408;53.238;5.686;2022-10-16T03:07:37;12.90;99.90
56512;DHT22;42408;53.238;5.686;2022-10-16T03:10:04;12.80;99.90
56512;DHT22;42408;53.238;5.686;2022-10-16T03:12:29;12.80;99.90
56512;DHT22;42408;53.238;5.686;2022-10-16T03:14:55;12.80;99.90
56512;DHT22;42408;53.238;5.686;2022-10-16T03:17:22;12.80;99.90
56512;DHT22;42408;53.238;5.686;2022-10-16T03:19:48;12.80;99.90
56512;DHT22;42408;53.238;5.686;2022-10-16T03:22:13;12.80;99.90
56512;DHT22;42408;53.238;5.686;2022-10-16T03:24:39;12.80;99.90
56512;DHT22;42408;53.238;5.686;2022-10-16T03:27:04;12.90;99.90
56512;DHT22;42408;53.238;5.686;2022-10-16T03:29:30;12.80;99.90
56512;DHT22;42408;53.238;5.686;2022-10-16T03:31:57;12.70;99.90
56512;DHT22;42408;53.238;5.686;2022-10-16T03:34:22;12.80;99.90
56512;DHT22;42408;53.238;5.686;2022-10-16T03:36:48;12.80;99.90
56512;DHT22;42408;53.238;5.686;2022-10-16T03:39:14;12.80;99.90
56512;DHT22;42408;53.238;5.686;2022-10-16T03:41:39;12.90;99.90
56512;DHT22;42408;53.238;5.686;2022-10-16T03:44:05;12.90;99.90
56512;DHT22;42408;53.238;5.686;2022-10-16T03:46:31;12.90;99.90
56512;DHT22;42408;53.238;5.686;2022-10-16T03:48:56;12.90;99.90
56512;DHT22;42408;53.238;5.686;2022-10-16T03:51:22;12.90;99.90
56512;DHT22;42408;53.238;5.686;2022-10-16T03:53:47;12.90;99.90
56512;DHT22;42408;53.238;5.686;2022-10-16T03:56:13;12.90;99.90
56512;DHT22;42408;53.238;5.686;2022-10-16T03:58:38;12.90;99.90
56512;DHT22;42408;53.238;5.686;2022-10-16T04:01:04;12.90;99.90
56512;DHT22;42408;53.238;5.686;2022-10-16T04:03:29;13.00;99.90
56512;DHT22;42408;53.238;5.686;2022-10-16T04:05:55;13.00;99.90
56512;DHT22;42408;53.238;5.686;2022-10-16T04:08:20;13.00;99.90
56512;DHT22;42408;53.238;5.686;2022-10-16T04:10:46;13.10;99.90
56512;DHT22;42408;53.238;5.686;2022-10-16T04:13:12;13.10;99.90
56512;DHT22;42408;53.238;5.686;2022-10-16T04:15:38;13.10;99.90
56512;DHT22;42408;53.238;5.686;2022-10-16T04:18:03;13.20;99.90
56512;DHT22;42408;53.238;5.686;2022-10-16T04:20:29;13.10;99.90
56512;DHT22;42408;53.238;5.686;2022-10-16T04:22:55;13.20;99.90
56512;DHT22;42408;53.238;5.686;2022-10-16T04:25:21;13.20;99.90
56512;DHT22;42408;53.238;5.686;2022-10-16T04:27:46;13.20;99.90
56512;DHT22;42408;53.238;5.686;2022-10-16T04:30:12;13.30;99.90
56512;DHT22;42408;53.238;5.686;2022-10-16T04:32:38;13.30;99.90
56512;DHT22;42408;53.238;5.686;2022-10-16T04:35:04;13.40;99.90
56512;DHT22;42408;53.238;5.686;2022-10-16T04:37:30;13.30;99.90
56512;DHT22;42408;53.238;5.686;2022-10-16T04:39:55;13.30;99.90
56512;DHT22;42408;53.238;5.686;2022-10-16T04:42:21;13.30;99.90
56512;DHT22;42408;53.238;5.686;2022-10-16T04:44:46;13.20;99.90
56512;DHT22;42408;53.238;5.686;2022-10-16T04:47:12;13.30;99.90
56512;DHT22;42408;53.238;5.686;2022-10-16T04:49:38;13.30;99.90
56512;DHT22;42408;53.238;5.686;2022-10-16T04:52:03;13.20;99.90
56512;DHT22;42408;53.238;5.686;2022-10-16T04:54:29;13.20;99.90
56512;DHT22;42408;53.238;5.686;2022-10-16T04:56:55;13.20;99.90
56512;DHT22;42408;53.238;5.686;2022-10-16T04:59:20;13.20;99.90
56512;DHT22;42408;53.238;5.686;2022-10-16T05:01:46;13.20;99.90
56512;DHT22;42408;53.238;5.686;2022-10-16T05:04:11;13.30;99.90
56512;DHT22;42408;53.238;5.686;2022-10-16T05:06:37;13.30;99.90
56512;DHT22;42408;53.238;5.686;2022-10-16T05:09:04;13.30;99.90
56512;DHT22;42408;53.238;5.686;2022-10-16T05:11:33;13.30;99.90
56512;DHT22;42408;53.238;5.686;2022-10-16T05:13:58;13.30;99.90
56512;DHT22;42408;53.238;5.686;2022-10-16T05:16:24;13.30;99.90
56512;DHT22;42408;53.238;5.686;2022-10-16T05:18:51;13.20;99.90
56512;DHT22;42408;53.238;5.686;2022-10-16T05:21:16;13.20;99.90
56512;DHT22;42408;53.238;5.686;2022-10-16T05:23:42;13.20;99.90
56512;DHT22;42408;53.238;5.686;2022-10-16T05:26:07;13.20;99.90
56512;DHT22;42408;53.238;5.686;2022-10-16T05:28:33;13.20;99.90
56512;DHT22;42408;53.238;5.686;2022-10-16T05:30:58;13.20;99.90
56512;DHT22;42408;53.238;5.686;2022-10-16T05:33:25;13.30;99.90
56512;DHT22;42408;53.238;5.686;2022-10-16T05:35:51;13.20;99.90
56512;DHT22;42408;53.238;5.686;2022-10-16T05:38:17;13.20;99.90
56512;DHT22;42408;53.238;5.686;2022-10-16T05:40:42;13.30;99.90
56512;DHT22;42408;53.238;5.686;2022-10-16T05:43:08;13.20;99.90
56512;DHT22;42408;53.238;5.686;2022-10-16T05:45:33;13.10;99.90
56512;DHT22;42408;53.238;5.686;2022-10-16T05:47:59;13.10;99.90
56512;DHT22;42408;53.238;5.686;2022-10-16T05:50:25;13.00;99.90
56512;DHT22;42408;53.238;5.686;2022-10-16T05:52:50;13.00;99.90
56512;DHT22;42408;53.238;5.686;2022-10-16T05:55:16;13.00;99.90
56512;DHT22;42408;53.238;5.686;2022-10-16T05:57:41;13.00;99.90
56512;DHT22;42408;53.238;5.686;2022-10-16T06:00:07;13.00;99.90
56512;DHT22;42408;53.238;5.686;2022-10-16T06:02:33;13.00;99.90
56512;DHT22;42408;53.238;5.686;2022-10-16T06:04:58;13.10;99.90
56512;DHT22;42408;53.238;5.686;2022-10-16T06:07:24;13.00;99.90
56512;DHT22;42408;53.238;5.686;2022-10-16T06:09:50;13.10;99.90
56512;DHT22;42408;53.238;5.686;2022-10-16T06:12:16;13.10;99.90
56512;DHT22;42408;53.238;5.686;2022-10-16T06:14:42;13.10;99.90
56512;DHT22;42408;53.238;5.686;2022-10-16T06:17:07;13.10;99.90
56512;DHT22;42408;53.238;5.686;2022-10-16T06:19:33;13.10;99.90
56512;DHT22;42408;53.238;5.686;2022-10-16T06:21:58;13.10;99.90
56512;DHT22;42408;53.238;5.686;2022-10-16T06:24:24;13.10;99.90
56512;DHT22;42408;53.238;5.686;2022-10-16T06:26:50;13.00;99.90
56512;DHT22;42408;53.238;5.686;2022-10-16T06:29:15;13.00;99.90
56512;DHT22;42408;53.238;5.686;2022-10-16T06:31:41;13.10;99.90
56512;DHT22;42408;53.238;5.686;2022-10-16T06:34:08;13.10;99.90
56512;DHT22;42408;53.238;5.686;2022-10-16T06:36:35;13.10;99.90
56512;DHT22;42408;53.238;5.686;2022-10-16T06:39:01;13.20;99.90
56512;DHT22;42408;53.238;5.686;2022-10-16T06:41:27;13.10;99.90
56512;DHT22;42408;53.238;5.686;2022-10-16T06:43:52;13.10;99.90
56512;DHT22;42408;53.238;5.686;2022-10-16T06:46:19;13.20;99.90
56512;DHT22;42408;53.238;5.686;2022-10-16T06:48:45;13.20;99.90
56512;DHT22;42408;53.238;5.686;2022-10-16T06:51:12;13.30;99.90
56512;DHT22;42408;53.238;5.686;2022-10-16T06:53:39;13.20;99.90
56512;DHT22;42408;53.238;5.686;2022-10-16T06:58:40;13.20;99.90
56512;DHT22;42408;53.238;5.686;2022-10-16T07:01:06;13.30;99.90
56512;DHT22;42408;53.238;5.686;2022-10-16T07:03:31;13.30;99.90
56512;DHT22;42408;53.238;5.686;2022-10-16T07:05:57;13.30;99.90
56512;DHT22;42408;53.238;5.686;2022-10-16T07:08:22;13.40;99.90
56512;DHT22;42408;53.238;5.686;2022-10-16T07:10:48;13.30;99.90
56512;DHT22;42408;53.238;5.686;2022-10-16T07:13:13;13.40;99.90
56512;DHT22;42408;53.238;5.686;2022-10-16T07:15:39;13.30;99.90
56512;DHT22;42408;53.238;5.686;2022-10-16T07:18:05;13.30;99.90
56512;DHT22;42408;53.238;5.686;2022-10-16T07:20:31;13.30;99.90
56512;DHT22;42408;53.238;5.686;2022-10-16T07:22:56;13.40;99.90
56512;DHT22;42408;53.238;5.686;2022-10-16T07:25:22;13.50;99.90
56512;DHT22;42408;53.238;5.686;2022-10-16T07:27:47;13.60;99.90
56512;DHT22;42408;53.238;5.686;2022-10-16T07:30:13;13.60;99.90
56512;DHT22;42408;53.238;5.686;2022-10-16T07:32:38;13.60;99.90
56512;DHT22;42408;53.238;5.686;2022-10-16T07:35:04;13.60;99.90
56512;DHT22;42408;53.238;5.686;2022-10-16T07:37:30;13.70;99.90
56512;DHT22;42408;53.238;5.686;2022-10-16T07:39:55;13.80;99.90
56512;DHT22;42408;53.238;5.686;2022-10-16T07:42:21;13.80;99.90
56512;DHT22;42408;53.238;5.686;2022-10-16T07:44:46;13.80;99.90
56512;DHT22;42408;53.238;5.686;2022-10-16T07:47:12;13.70;99.90
56512;DHT22;42408;53.238;5.686;2022-10-16T07:49:37;13.70;99.90
56512;DHT22;42408;53.238;5.686;2022-10-16T07:52:03;13.70;99.90
56512;DHT22;42408;53.238;5.686;2022-10-16T07:54:28;13.70;99.90
56512;DHT22;42408;53.238;5.686;2022-10-16T07:56:54;13.70;99.90
56512;DHT22;42408;53.238;5.686;2022-10-16T07:59:20;13.70;99.90
56512;DHT22;42408;53.238;5.686;2022-10-16T08:01:46;13.70;99.90
56512;DHT22;42408;53.238;5.686;2022-10-16T08:04:11;13.60;99.90
56512;DHT22;42408;53.238;5.686;2022-10-16T08:06:38;13.70;99.90
56512;DHT22;42408;53.238;5.686;2022-10-16T08:09:03;13.80;99.90
56512;DHT22;42408;53.238;5.686;2022-10-16T08:11:29;13.80;99.90
56512;DHT22;42408;53.238;5.686;2022-10-16T08:13:54;13.80;99.90
56512;DHT22;42408;53.238;5.686;2022-10-16T08:16:20;13.80;99.90
56512;DHT22;42408;53.238;5.686;2022-10-16T08:18:46;13.90;99.90
56512;DHT22;42408;53.238;5.686;2022-10-16T08:21:12;14.00;99.90
56512;DHT22;42408;53.238;5.686;2022-10-16T08:23:38;14.00;99.90
56512;DHT22;42408;53.238;5.686;2022-10-16T08:26:05;14.10;99.90
56512;DHT22;42408;53.238;5.686;2022-10-16T08:28:31;14.30;99.90
56512;DHT22;42408;53.238;5.686;2022-10-16T08:31:03;14.40;99.90
56512;DHT22;42408;53.238;5.686;2022-10-16T08:33:29;14.50;99.90
56512;DHT22;42408;53.238;5.686;2022-10-16T08:35:55;14.70;99.90
56512;DHT22;42408;53.238;5.686;2022-10-16T08:38:20;14.80;99.90
56512;DHT22;42408;53.238;5.686;2022-10-16T08:40:46;14.80;99.90
56512;DHT22;42408;53.238;5.686;2022-10-16T08:48:34;15.10;99.90
56512;DHT22;42408;53.238;5.686;2022-10-16T08:51:01;15.10;99.90
56512;DHT22;42408;53.238;5.686;2022-10-16T08:53:29;15.30;99.90
56512;DHT22;42408;53.238;5.686;2022-10-16T08:55:56;15.40;99.90
56512;DHT22;42408;53.238;5.686;2022-10-16T08:58:27;15.50;99.90
56512;DHT22;42408;53.238;5.686;2022-10-16T09:00:54;15.50;99.90
56512;DHT22;42408;53.238;5.686;2022-10-16T09:10:56;16.00;99.90
56512;DHT22;42408;53.238;5.686;2022-10-16T09:13:36;16.20;99.90
56512;DHT22;42408;53.238;5.686;2022-10-16T09:18:54;16.60;99.90
56512;DHT22;42408;53.238;5.686;2022-10-16T09:21:21;16.70;99.90
56512;DHT22;42408;53.238;5.686;2022-10-16T09:23:48;16.90;99.90
56512;DHT22;42408;53.238;5.686;2022-10-16T09:26:14;17.00;99.90
56512;DHT22;42408;53.238;5.686;2022-10-16T09:28:41;17.10;99.90
56512;DHT22;42408;53.238;5.686;2022-10-16T09:31:17;17.10;99.90
56512;DHT22;42408;53.238;5.686;2022-10-16T09:33:43;17.20;99.90
56512;DHT22;42408;53.238;5.686;2022-10-16T09:36:09;17.30;99.90
56512;DHT22;42408;53.238;5.686;2022-10-16T09:38:36;17.40;99.90
56512;DHT22;42408;53.238;5.686;2022-10-16T09:41:20;17.40;99.90
56512;DHT22;42408;53.238;5.686;2022-10-16T09:43:48;17.40;99.90
56512;DHT22;42408;53.238;5.686;2022-10-16T09:48:50;17.30;99.90
56512;DHT22;42408;53.238;5.686;2022-10-16T09:51:18;17.30;99.90
56512;DHT22;42408;53.238;5.686;2022-10-16T09:53:44;17.40;99.90
56512;DHT22;42408;53.238;5.686;2022-10-16T09:56:11;17.50;99.90
56512;DHT22;42408;53.238;5.686;2022-10-16T09:58:42;17.50;99.90
56512;DHT22;42408;53.238;5.686;2022-10-16T10:01:11;17.60;99.90
56512;DHT22;42408;53.238;5.686;2022-10-16T10:03:39;17.60;99.90
56512;DHT22;42408;53.238;5.686;2022-10-16T10:09:06;17.70;99.90
56512;DHT22;42408;53.238;5.686;2022-10-16T10:11:42;17.80;99.90
56512;DHT22;42408;53.238;5.686;2022-10-16T10:14:50;17.80;99.90
56512;DHT22;42408;53.238;5.686;2022-10-16T10:17:17;17.90;99.90
56512;DHT22;42408;53.238;5.686;2022-10-16T10:19:53;18.00;99.90
56512;DHT22;42408;53.238;5.686;2022-10-16T10:25:00;18.20;99.90
56512;DHT22;42408;53.238;5.686;2022-10-16T10:27:29;18.20;99.90
56512;DHT22;42408;53.238;5.686;2022-10-16T10:30:02;18.10;99.90
56512;DHT22;42408;53.238;5.686;2022-10-16T10:32:40;18.30;99.90
56512;DHT22;42408;53.238;5.686;2022-10-16T10:35:16;18.30;99.90
56512;DHT22;42408;53.238;5.686;2022-10-16T10:40:21;18.20;99.90
56512;DHT22;42408;53.238;5.686;2022-10-16T10:42:59;18.30;99.90
56512;DHT22;42408;53.238;5.686;2022-10-16T10:45:30;18.40;99.90
56512;DHT22;42408;53.238;5.686;2022-10-16T10:50:39;18.50;99.90
56512;DHT22;42408;53.238;5.686;2022-10-16T10:58:03;18.50;99.90
56512;DHT22;42408;53.238;5.686;2022-10-16T11:05:55;18.60;99.90
56512;DHT22;42408;53.238;5.686;2022-10-16T11:08:26;18.70;99.90
56512;DHT22;42408;53.238;5.686;2022-10-16T11:10:54;18.50;99.90
56512;DHT22;42408;53.238;5.686;2022-10-16T11:16:11;18.30;99.90
56512;DHT22;42408;53.238;5.686;2022-10-16T11:21:23;18.20;99.90
56512;DHT22;42408;53.238;5.686;2022-10-16T11:26:16;18.10;99.90
56512;DHT22;42408;53.238;5.686;2022-10-16T11:28:50;18.10;99.90
56512;DHT22;42408;53.238;5.686;2022-10-16T11:31:32;18.10;99.90
56512;DHT22;42408;53.238;5.686;2022-10-16T11:34:22;18.10;99.90
56512;DHT22;42408;53.238;5.686;2022-10-16T11:36:57;18.00;99.90
56512;DHT22;42408;53.238;5.686;2022-10-16T11:39:26;18.10;99.90
56512;DHT22;42408;53.238;5.686;2022-10-16T11:49:36;17.90;99.90
56512;DHT22;42408;53.238;5.686;2022-10-16T11:52:21;17.90;99.90
56512;DHT22;42408;53.238;5.686;2022-10-16T11:54:52;17.90;99.90
56512;DHT22;42408;53.238;5.686;2022-10-16T11:57:33;17.90;99.90
56512;DHT22;42408;53.238;5.686;2022-10-16T12:07:36;18.00;99.90
56512;DHT22;42408;53.238;5.686;2022-10-16T12:10:10;17.90;99.90
56512;DHT22;42408;53.238;5.686;2022-10-16T12:17:45;17.90;99.90
56512;DHT22;42408;53.238;5.686;2022-10-16T12:22:36;18.10;99.90
56512;DHT22;42408;53.238;5.686;2022-10-16T12:25:17;18.10;99.90
56512;DHT22;42408;53.238;5.686;2022-10-16T12:27:44;18.10;99.90
56512;DHT22;42408;53.238;5.686;2022-10-16T12:30:14;18.10;99.90
56512;DHT22;42408;53.238;5.686;2022-10-16T12:32:45;18.10;99.90
56512;DHT22;42408;53.238;5.686;2022-10-16T12:35:25;18.30;99.90
56512;DHT22;42408;53.238;5.686;2022-10-16T12:37:51;18.20;99.90
56512;DHT22;42408;53.238;5.686;2022-10-16T12:42:49;18.10;99.90
56512;DHT22;42408;53.238;5.686;2022-10-16T12:47:50;18.10;99.90
56512;DHT22;42408;53.238;5.686;2022-10-16T12:52:48;18.20;99.90
56512;DHT22;42408;53.238;5.686;2022-10-16T12:55:17;18.30;99.90
56512;DHT22;42408;53.238;5.686;2022-10-16T13:15:41;18.20;99.90
56512;DHT22;42408;53.238;5.686;2022-10-16T13:18:26;18.20;99.90
56512;DHT22;42408;53.238;5.686;2022-10-16T13:26:52;18.30;99.90
56512;DHT22;42408;53.238;5.686;2022-10-16T13:29:19;18.30;99.90
56512;DHT22;42408;53.238;5.686;2022-10-16T13:31:45;18.20;99.90
56512;DHT22;42408;53.238;5.686;2022-10-16T13:34:12;18.20;99.90
56512;DHT22;42408;53.238;5.686;2022-10-16T13:36:43;18.00;99.90
56512;DHT22;42408;53.238;5.686;2022-10-16T13:39:13;18.00;99.90
56512;DHT22;42408;53.238;5.686;2022-10-16T13:41:39;18.00;99.90
56512;DHT22;42408;53.238;5.686;2022-10-16T13:44:05;17.90;99.90
56512;DHT22;42408;53.238;5.686;2022-10-16T13:46:36;17.90;99.90
56512;DHT22;42408;53.238;5.686;2022-10-16T13:49:05;17.80;99.90
56512;DHT22;42408;53.238;5.686;2022-10-16T13:51:31;17.80;99.90
56512;DHT22;42408;53.238;5.686;2022-10-16T13:53:57;17.90;99.90
56512;DHT22;42408;53.238;5.686;2022-10-16T13:56:27;17.90;99.90
56512;DHT22;42408;53.238;5.686;2022-10-16T13:59:06;18.10;99.90
56512;DHT22;42408;53.238;5.686;2022-10-16T14:01:35;18.20;99.90
56512;DHT22;42408;53.238;5.686;2022-10-16T14:04:06;18.10;99.90
56512;DHT22;42408;53.238;5.686;2022-10-16T14:06:32;18.00;99.90
56512;DHT22;42408;53.238;5.686;2022-10-16T14:09:05;18.10;99.90
56512;DHT22;42408;53.238;5.686;2022-10-16T14:11:31;18.10;99.90
56512;DHT22;42408;53.238;5.686;2022-10-16T14:13:57;18.00;99.90
56512;DHT22;42408;53.238;5.686;2022-10-16T14:16:23;18.10;99.90
56512;DHT22;42408;53.238;5.686;2022-10-16T14:18:54;18.10;99.90
56512;DHT22;42408;53.238;5.686;2022-10-16T14:21:20;18.10;99.90
56512;DHT22;42408;53.238;5.686;2022-10-16T14:23:46;18.10;99.90
56512;DHT22;42408;53.238;5.686;2022-10-16T14:26:12;18.00;99.90
56512;DHT22;42408;53.238;5.686;2022-10-16T14:28:39;18.00;99.90
56512;DHT22;42408;53.238;5.686;2022-10-16T14:33:48;17.90;99.90
56512;DHT22;42408;53.238;5.686;2022-10-16T14:36:14;17.80;99.90
56512;DHT22;42408;53.238;5.686;2022-10-16T14:38:42;17.80;99.90
56512;DHT22;42408;53.238;5.686;2022-10-16T14:41:08;17.80;99.90
56512;DHT22;42408;53.238;5.686;2022-10-16T14:43:35;17.80;99.90
56512;DHT22;42408;53.238;5.686;2022-10-16T14:46:02;17.70;99.90
56512;DHT22;42408;53.238;5.686;2022-10-16T14:48:28;17.60;99.90
56512;DHT22;42408;53.238;5.686;2022-10-16T14:50:54;17.60;99.90
56512;DHT22;42408;53.238;5.686;2022-10-16T14:53:20;17.40;99.90
56512;DHT22;42408;53.238;5.686;2022-10-16T14:55:45;17.40;99.90
56512;DHT22;42408;53.238;5.686;2022-10-16T14:58:18;17.30;99.90
56512;DHT22;42408;53.238;5.686;2022-10-16T15:00:44;17.30;99.90
56512;DHT22;42408;53.238;5.686;2022-10-16T15:03:10;17.10;99.90
56512;DHT22;42408;53.238;5.686;2022-10-16T15:05:35;17.10;99.90
56512;DHT22;42408;53.238;5.686;2022-10-16T15:08:01;17.00;99.90
56512;DHT22;42408;53.238;5.686;2022-10-16T15:10:27;17.10;99.90
56512;DHT22;42408;53.238;5.686;2022-10-16T15:12:53;17.00;99.90
56512;DHT22;42408;53.238;5.686;2022-10-16T15:17:48;16.90;99.90
56512;DHT22;42408;53.238;5.686;2022-10-16T15:20:13;16.90;99.90
56512;DHT22;42408;53.238;5.686;2022-10-16T15:22:39;16.80;99.90
56512;DHT22;42408;53.238;5.686;2022-10-16T15:27:49;16.70;99.90
56512;DHT22;42408;53.238;5.686;2022-10-16T15:30:14;16.70;99.90
56512;DHT22;42408;53.238;5.686;2022-10-16T15:32:40;16.70;99.90
56512;DHT22;42408;53.238;5.686;2022-10-16T15:35:07;16.60;99.90
56512;DHT22;42408;53.238;5.686;2022-10-16T15:37:33;16.60;99.90
56512;DHT22;42408;53.238;5.686;2022-10-16T15:39:59;16.60;99.90
56512;DHT22;42408;53.238;5.686;2022-10-16T15:42:24;16.50;99.90
56512;DHT22;42408;53.238;5.686;2022-10-16T15:44:50;16.50;99.90
56512;DHT22;42408;53.238;5.686;2022-10-16T15:47:16;16.40;99.90
56512;DHT22;42408;53.238;5.686;2022-10-16T15:49:41;16.40;99.90
56512;DHT22;42408;53.238;5.686;2022-10-16T15:52:07;16.30;99.90
56512;DHT22;42408;53.238;5.686;2022-10-16T15:54:32;16.30;99.90
56512;DHT22;42408;53.238;5.686;2022-10-16T15:56:58;16.30;99.90
56512;DHT22;42408;53.238;5.686;2022-10-16T15:59:23;16.30;99.90
56512;DHT22;42408;53.238;5.686;2022-10-16T16:01:49;16.20;99.90
56512;DHT22;42408;53.238;5.686;2022-10-16T16:04:14;16.20;99.90
56512;DHT22;42408;53.238;5.686;2022-10-16T16:06:42;16.10;99.90
56512;DHT22;42408;53.238;5.686;2022-10-16T16:09:10;16.00;99.90
56512;DHT22;42408;53.238;5.686;2022-10-16T16:11:36;16.00;99.90
56512;DHT22;42408;53.238;5.686;2022-10-16T16:14:07;15.90;99.90
56512;DHT22;42408;53.238;5.686;2022-10-16T16:16:32;15.90;99.90
56512;DHT22;42408;53.238;5.686;2022-10-16T16:19:06;15.90;99.90
56512;DHT22;42408;53.238;5.686;2022-10-16T16:21:32;15.80;99.90
56512;DHT22;42408;53.238;5.686;2022-10-16T16:23:58;15.80;99.90
56512;DHT22;42408;53.238;5.686;2022-10-16T16:26:27;15.70;99.90
56512;DHT22;42408;53.238;5.686;2022-10-16T16:28:54;15.60;99.90
56512;DHT22;42408;53.238;5.686;2022-10-16T16:31:25;15.60;99.90
56512;DHT22;42408;53.238;5.686;2022-10-16T16:33:51;15.40;99.90
56512;DHT22;42408;53.238;5.686;2022-10-16T16:36:17;15.40;99.90
56512;DHT22;42408;53.238;5.686;2022-10-16T16:38:43;15.30;99.90
56512;DHT22;42408;53.238;5.686;2022-10-16T16:43:37;15.20;99.90
56512;DHT22;42408;53.238;5.686;2022-10-16T16:46:03;15.20;99.90
56512;DHT22;42408;53.238;5.686;2022-10-16T16:48:29;15.10;99.90
56512;DHT22;42408;53.238;5.686;2022-10-16T16:50:54;15.10;99.90
56512;DHT22;42408;53.238;5.686;2022-10-16T16:53:20;15.00;99.90
56512;DHT22;42408;53.238;5.686;2022-10-16T16:55:45;15.00;99.90
56512;DHT22;42408;53.238;5.686;2022-10-16T16:58:11;14.90;99.90
56512;DHT22;42408;53.238;5.686;2022-10-16T17:00:36;14.90;99.90
56512;DHT22;42408;53.238;5.686;2022-10-16T17:03:02;14.90;99.90
56512;DHT22;42408;53.238;5.686;2022-10-16T17:05:27;14.80;99.90
56512;DHT22;42408;53.238;5.686;2022-10-16T17:07:53;14.80;99.90
56512;DHT22;42408;53.238;5.686;2022-10-16T17:10:18;14.80;99.90
56512;DHT22;42408;53.238;5.686;2022-10-16T17:12:44;14.70;99.90
56512;DHT22;42408;53.238;5.686;2022-10-16T17:15:09;14.70;99.90
56512;DHT22;42408;53.238;5.686;2022-10-16T17:17:35;14.70;99.90
56512;DHT22;42408;53.238;5.686;2022-10-16T17:20:01;14.60;99.90
56512;DHT22;42408;53.238;5.686;2022-10-16T17:22:26;14.60;99.90
56512;DHT22;42408;53.238;5.686;2022-10-16T17:24:52;14.50;99.90
56512;DHT22;42408;53.238;5.686;2022-10-16T17:27:19;14.50;99.90
56512;DHT22;42408;53.238;5.686;2022-10-16T17:29:44;14.50;99.90
56512;DHT22;42408;53.238;5.686;2022-10-16T17:32:10;14.40;99.90
56512;DHT22;42408;53.238;5.686;2022-10-16T17:34:36;14.40;99.90
56512;DHT22;42408;53.238;5.686;2022-10-16T17:37:01;14.40;99.90
56512;DHT22;42408;53.238;5.686;2022-10-16T17:39:27;14.40;99.90